Time;durP1;ratioP1;P1;durP2;ratioP2;P2;SDS_P1;SDS_P2;PMS_P1;PMS_P2;Temp;Humidity;BMP_temperature;BMP_pressure;BME280_temperature;BME280_humidity;BME280_pressure;Samples;Min_cycle;Max_cycle;Signal;HPM_P1;HPM_P2
2023/12/30 00:00:39;;;;;;;;;;;;;;;8.86;81.15;99610.23;110899;1271;23180;-73
2023/12/30 00:03:41;;;;;;;3.60;0.90;;;;;;;8.83;80.99;99612.96;110906;1269;23267;-73
2023/12/30 00:06:33;;;;;;;4.90;1.10;;;;;;;8.79;80.96;99610.61;111002;1265;22338;-72
2023/12/30 00:09:24;;;;;;;4.10;0.90;;;;;;;8.78;80.98;99614.50;110899;1264;23199;-73
2023/12/30 00:12:13;;;;;;;;;;;;;;;8.77;81.10;99612.00;110912;1270;22531;-72
2023/12/30 00:15:04;;;;;;;5.90;0.90;;;;;;;8.77;80.99;99613.12;110895;1272;23105;-72
2023/12/30 00:17:54;;;;;;;8.00;1.10;;;;;;;8.79;81.12;99617.30;110880;1272;22170;-71
2023/12/30 00:20:45;;;;;;;4.30;1.00;;;;;;;8.80;81.05;99612.96;110743;1273;22240;-73
2023/12/30 00:23:39;;;;;;;5.10;0.80;;;;;;;8.83;81.03;99614.33;110786;1273;22904;-73
2023/12/30 00:26:29;;;;;;;6.30;0.80;;;;;;;8.86;81.16;99613.76;110774;1271;119854;-72
2023/12/30 00:29:30;;;;;;;3.10;0.90;;;;;;;8.87;80.92;99615.41;110877;1272;22198;-73
2023/12/30 00:32:21;;;;;;;5.90;0.70;;;;;;;8.88;81.07;99617.50;110886;1270;22181;-74
2023/12/30 00:35:12;;;;;;;4.00;0.90;;;;;;;8.89;80.89;99616.66;110916;1270;22130;-73
2023/12/30 00:38:03;;;;;;;4.40;0.90;;;;;;;8.90;80.86;99610.55;110875;1260;22478;-72
2023/12/30 00:40:54;;;;;;;5.50;0.70;;;;;;;8.90;80.71;99606.19;110923;1260;22154;-72
2023/12/30 00:43:43;;;;;;;;;;;;;;;8.88;80.62;99601.05;110909;1269;22422;-72
2023/12/30 00:46:33;;;;;;;3.80;0.70;;;;;;;8.85;80.59;99595.09;110911;1272;22136;-72
2023/12/30 00:49:24;;;;;;;4.00;0.70;;;;;;;8.82;80.60;99592.96;110876;1271;22467;-73
2023/12/30 00:52:13;;;;;;;;;;;;;;;8.78;80.40;99597.00;110877;1268;23051;-72
2023/12/30 00:55:05;;;;;;;3.30;0.70;;;;;;;8.74;80.53;99593.80;110919;1267;23346;-73
2023/12/30 00:57:55;;;;;;;6.30;0.70;;;;;;;8.72;80.50;99595.89;110907;1271;22864;-72
2023/12/30 01:00:46;;;;;;;3.90;0.80;;;;;;;8.72;80.51;99597.82;110888;1271;22221;-74
2023/12/30 01:03:37;;;;;;;4.40;0.90;;;;;;;8.72;80.52;99600.75;110896;1271;22168;-72
2023/12/30 01:06:28;;;;;;;5.50;1.10;;;;;;;8.73;80.56;99600.26;110944;1264;22280;-72
2023/12/30 01:09:17;;;;;;;;;;;;;;;8.73;80.62;99601.01;110927;1272;22387;-72
2023/12/30 01:12:09;;;;;;;3.10;1.00;;;;;;;8.72;80.61;99605.77;110891;1264;22238;-73
2023/12/30 01:15:00;;;;;;;3.70;0.80;;;;;;;8.73;80.62;99611.59;110910;1272;22162;-73
2023/12/30 01:17:49;;;;;;;;;;;;;;;8.73;80.74;99612.95;110909;1272;22308;-73
2023/12/30 01:20:40;;;;;;;3.50;0.80;;;;;;;8.73;80.77;99611.99;110774;1273;22408;-73
2023/12/30 01:23:31;;;;;;;6.60;0.80;;;;;;;8.74;80.77;99608.45;110793;1272;23205;-73
2023/12/30 01:26:20;;;;;;;;;;;;;;;8.74;80.74;99603.36;110893;1268;23334;-73
2023/12/30 01:29:11;;;;;;;4.70;0.90;;;;;;;8.72;80.84;99602.20;110936;1270;22385;-72
2023/12/30 01:32:01;;;;;;;4.70;0.80;;;;;;;8.71;80.76;99602.48;110897;1270;22335;-73
2023/12/30 01:34:52;;;;;;;4.60;0.80;;;;;;;8.70;80.87;99599.20;110911;1271;22177;-73
2023/12/30 01:37:43;;;;;;;5.60;0.90;;;;;;;8.69;80.80;99591.48;110958;1270;22059;-72
2023/12/30 01:40:33;;;;;;;4.60;0.80;;;;;;;8.68;80.79;99595.27;110960;1271;22215;-73
2023/12/30 01:43:28;;;;;;;4.40;1.20;;;;;;;8.69;80.92;99587.20;110786;1271;22981;-72
2023/12/30 01:46:19;;;;;;;4.40;1.20;;;;;;;8.69;80.83;99583.90;110890;1267;23254;-72
2023/12/30 01:49:11;;;;;;;3.70;0.90;;;;;;;8.68;80.73;99575.73;110896;1270;22157;-72
2023/12/30 01:52:03;;;;;;;5.50;0.90;;;;;;;8.66;80.59;99570.09;110899;1261;22140;-73
2023/12/30 01:54:54;;;;;;;3.80;0.90;;;;;;;8.62;80.57;99568.35;110929;1272;22218;-73
2023/12/30 01:57:45;;;;;;;4.00;0.80;;;;;;;8.58;80.64;99571.42;110935;1264;22098;-72
2023/12/30 02:00:39;;;;;;;4.30;1.00;;;;;;;8.53;80.67;99565.27;110974;1271;22151;-73
2023/12/30 02:03:30;;;;;;;4.50;0.90;;;;;;;8.49;80.57;99560.91;110881;1264;22191;-72
2023/12/30 02:06:20;;;;;;;3.60;0.70;;;;;;;8.44;80.75;99560.98;110903;1264;22169;-74
2023/12/30 02:09:10;;;;;;;;;;;;;;;8.39;80.67;99563.56;110888;1264;24330;-73
2023/12/30 02:12:01;;;;;;;5.60;0.90;;;;;;;8.34;80.74;99571.33;110906;1272;22128;-73
2023/12/30 02:14:52;;;;;;;3.60;0.90;;;;;;;8.31;80.76;99560.56;110742;1273;22304;-72
2023/12/30 02:17:42;;;;;;;3.60;0.60;;;;;;;8.27;80.79;99552.49;110997;1270;22148;-74
2023/12/30 02:20:31;;;;;;;;;;;;;;;8.26;80.93;99549.59;110920;1272;22263;-72
2023/12/30 02:23:22;;;;;;;3.30;0.70;;;;;;;8.25;80.85;99543.52;110898;1272;22267;-73
2023/12/30 02:26:13;;;;;;;3.00;0.70;;;;;;;8.25;80.82;99532.73;110887;1264;22971;-73
2023/12/30 02:29:04;;;;;;;2.70;0.70;;;;;;;8.23;80.90;99528.19;110926;1268;22178;-73
2023/12/30 02:31:55;;;;;;;2.60;0.60;;;;;;;8.20;80.74;99533.14;110967;1264;22512;-72
2023/12/30 02:34:46;;;;;;;4.70;0.70;;;;;;;8.17;80.74;99539.88;110905;1269;22721;-72
2023/12/30 02:37:35;;;;;;;;;;;;;;;8.15;80.87;99540.75;110962;1272;23080;-73
2023/12/30 02:40:25;;;;;;;2.90;0.50;;;;;;;8.14;80.87;99540.48;110898;1272;22218;-72
2023/12/30 02:43:16;;;;;;;2.60;0.50;;;;;;;8.15;80.90;99543.67;110903;1271;22351;-72
2023/12/30 02:46:07;;;;;;;3.80;0.90;;;;;;;8.17;80.91;99533.04;110958;1264;22256;-72
2023/12/30 02:49:02;;;;;;;4.70;0.80;;;;;;;8.19;80.93;99532.48;110960;1271;22227;-72
2023/12/30 02:51:53;;;;;;;2.90;0.70;;;;;;;8.22;80.98;99552.34;110899;1272;22220;-72
2023/12/30 02:54:44;;;;;;;5.00;0.60;;;;;;;8.26;81.00;99551.73;110919;1264;23003;-72
2023/12/30 02:57:33;;;;;;;;;;;;;;;8.30;80.90;99554.08;110921;1271;23332;-73
2023/12/30 03:00:24;;;;;;;1.70;0.50;;;;;;;8.33;80.99;99548.80;110921;1264;22147;-72
2023/12/30 03:03:14;;;;;;;2.70;0.60;;;;;;;8.37;80.93;99543.56;110933;1264;22310;-72
2023/12/30 03:06:05;;;;;;;3.10;0.60;;;;;;;8.41;80.78;99545.56;110951;1272;22264;-74
2023/12/30 03:08:56;;;;;;;4.70;0.80;;;;;;;8.46;80.77;99548.26;110760;1273;23148;-72
2023/12/30 03:11:47;;;;;;;3.00;0.80;;;;;;;8.49;80.68;99547.77;110938;1272;22561;-73
2023/12/30 03:14:38;;;;;;;4.50;0.80;;;;;;;8.50;80.60;99538.48;110925;1272;22355;-74
2023/12/30 03:17:29;;;;;;;5.30;1.00;;;;;;;8.52;80.59;99538.76;110932;1267;22166;-71
2023/12/30 03:20:19;;;;;;;3.90;0.90;;;;;;;8.54;80.44;99537.68;110909;1264;22812;-73
2023/12/30 03:23:10;;;;;;;3.60;0.60;;;;;;;8.56;80.38;99537.27;110936;1271;22177;-73
2023/12/30 03:26:02;;;;;;;2.60;0.70;;;;;;;8.56;80.36;99542.41;110938;1264;22954;-72
2023/12/30 03:28:52;;;;;;;5.70;0.80;;;;;;;8.53;80.24;99542.21;110932;1272;22151;-73
2023/12/30 03:31:43;;;;;;;4.80;0.70;;;;;;;8.50;80.11;99538.63;110954;1268;22166;-72
2023/12/30 03:34:32;;;;;;;;;;;;;;;8.49;80.05;99541.84;110948;1269;22525;-73
2023/12/30 03:37:23;;;;;;;3.40;0.70;;;;;;;8.46;80.23;99540.38;110969;1260;22154;-73
2023/12/30 03:40:15;;;;;;;5.10;0.80;;;;;;;8.45;80.33;99542.48;110935;1267;22084;-74
2023/12/30 03:43:06;;;;;;;4.10;0.80;;;;;;;8.43;80.16;99540.38;110927;1264;22440;-72
2023/12/30 03:45:56;;;;;;;3.70;0.80;;;;;;;8.40;80.12;99544.46;110954;1270;22898;-72
2023/12/30 03:48:47;;;;;;;2.50;0.60;;;;;;;8.38;80.25;99543.08;111012;1263;22081;-72
2023/12/30 03:51:38;;;;;;;4.20;0.80;;;;;;;8.37;80.24;99542.30;111015;1271;23105;-73
2023/12/30 03:54:29;;;;;;;2.50;0.60;;;;;;;8.37;80.22;99541.59;110940;1264;22238;-72
2023/12/30 03:57:20;;;;;;;3.20;0.60;;;;;;;8.37;80.27;99545.15;110939;1257;22270;-72
2023/12/30 04:00:12;;;;;;;2.70;0.60;;;;;;;8.38;80.13;99548.52;110939;1264;22409;-72
2023/12/30 04:03:03;;;;;;;3.30;0.50;;;;;;;8.39;80.26;99549.58;110950;1272;22912;-73
2023/12/30 04:05:54;;;;;;;5.00;0.70;;;;;;;8.39;80.32;99553.47;110952;1272;22962;-72
2023/12/30 04:08:45;;;;;;;2.60;0.50;;;;;;;8.40;80.05;99551.15;110920;1272;22190;-72
2023/12/30 04:11:36;;;;;;;2.60;0.50;;;;;;;8.40;80.08;99551.87;110759;1273;22202;-73
2023/12/30 04:14:27;;;;;;;3.40;0.60;;;;;;;8.39;80.09;99544.81;110960;1264;22197;-72
2023/12/30 04:17:17;;;;;;;4.10;0.50;;;;;;;8.37;79.96;99553.67;110811;1271;22952;-72
2023/12/30 04:20:07;;;;;;;;;;;;;;;8.36;80.09;99558.96;110936;1271;22315;-74
2023/12/30 04:22:58;;;;;;;2.20;0.50;;;;;;;8.33;79.97;99554.28;110827;1272;22734;-74
2023/12/30 04:25:47;;;;;;;;;;;;;;;8.31;79.90;99556.16;110967;1264;23207;-73
2023/12/30 04:28:38;;;;;;;3.30;0.50;;;;;;;8.27;79.94;99569.39;110797;1269;23020;-74
2023/12/30 04:31:28;;;;;;;2.10;0.50;;;;;;;8.26;80.15;99577.49;110921;1265;22111;-72
2023/12/30 04:34:19;;;;;;;2.40;0.80;;;;;;;8.25;80.02;99581.74;110956;1264;23040;-73
2023/12/30 04:37:10;;;;;;;2.20;0.50;;;;;;;8.24;79.99;99585.34;110940;1264;23337;-73
2023/12/30 04:40:01;;;;;;;3.00;0.70;;;;;;;8.25;79.88;99592.62;110969;1271;22190;-73
2023/12/30 04:42:50;;;;;;;;;;;;;;;8.25;80.00;99592.85;110957;1271;23380;-73
2023/12/30 04:45:40;;;;;;;3.40;0.60;;;;;;;8.24;79.99;99605.36;110815;1271;22132;-72
2023/12/30 04:48:32;;;;;;;3.10;0.60;;;;;;;8.24;80.13;99609.29;110857;1263;23211;-73
2023/12/30 04:51:21;;;;;;;;;;;;;;;8.23;80.13;99618.08;111016;1264;23212;-74
2023/12/30 04:54:12;;;;;;;2.30;0.60;;;;;;;8.20;80.56;99627.64;111009;1264;22302;-73
2023/12/30 04:57:03;;;;;;;2.30;0.60;;;;;;;8.18;80.96;99644.90;111011;1271;22199;-72
2023/12/30 04:59:54;;;;;;;3.20;0.50;;;;;;;8.16;81.34;99668.86;110858;1271;23042;-73
2023/12/30 05:02:44;;;;;;;2.20;0.60;;;;;;;8.11;81.91;99680.14;108087;1272;23473;-75
2023/12/30 05:05:35;;;;;;;3.20;0.60;;;;;;;8.07;82.33;99676.66;107711;1272;24354;-72
2023/12/30 05:08:26;;;;;;;5.70;0.70;;;;;;;8.02;82.81;99668.48;108042;1260;22520;-72
2023/12/30 05:11:15;;;;;;;;;;;;;;;7.95;83.42;99666.37;107857;1270;22501;-71
2023/12/30 05:14:06;;;;;;;4.30;0.50;;;;;;;7.88;83.78;99673.86;107974;1268;23328;-72
2023/12/30 05:16:58;;;;;;;3.10;0.60;;;;;;;7.85;84.04;99688.86;107630;1264;22528;-71
2023/12/30 05:19:49;;;;;;;3.60;0.70;;;;;;;7.80;84.61;99687.42;107902;1268;25397;-73
2023/12/30 05:22:42;;;;;;;3.70;0.70;;;;;;;7.74;84.85;99683.07;107997;1265;24377;-71
2023/12/30 05:25:33;;;;;;;3.50;0.60;;;;;;;7.70;85.38;99678.37;108042;1265;24453;-71
2023/12/30 05:28:24;;;;;;;1.50;0.30;;;;;;;7.66;85.72;99667.79;107762;1271;22584;-71
2023/12/30 05:31:15;;;;;;;2.70;0.30;;;;;;;7.64;86.09;99658.20;107705;1271;24305;-72
2023/12/30 05:34:06;;;;;;;3.00;0.40;;;;;;;7.62;86.19;99650.77;107878;1264;22535;-73
2023/12/30 05:36:57;;;;;;;1.30;0.20;;;;;;;7.60;86.53;99639.98;107759;1268;22657;-72
2023/12/30 05:39:48;;;;;;;2.10;0.20;;;;;;;7.56;86.70;99638.52;107814;1271;22601;-72
2023/12/30 05:42:39;;;;;;;2.00;0.30;;;;;;;7.51;86.68;99641.89;107785;1271;22531;-71
2023/12/30 05:45:29;;;;;;;2.20;0.30;;;;;;;7.45;86.86;99640.41;107709;1270;22580;-71
2023/12/30 05:48:20;;;;;;;2.70;0.20;;;;;;;7.40;86.95;99644.89;107891;1270;25467;-71
2023/12/30 05:51:12;;;;;;;2.20;0.20;;;;;;;7.35;87.01;99646.80;107761;1264;25285;-72
2023/12/30 05:54:02;;;;;;;1.20;0.10;;;;;;;7.28;87.11;99643.77;107733;1272;22616;-71
2023/12/30 05:56:54;;;;;;;1.50;0.30;;;;;;;7.23;87.12;99644.83;107648;1272;23900;-71
2023/12/30 05:59:45;;;;;;;1.60;0.40;;;;;;;7.17;87.21;99650.23;107575;1273;22630;-71
2023/12/30 06:02:36;;;;;;;3.90;0.40;;;;;;;7.13;87.28;99664.77;107716;1271;24352;-71
2023/12/30 06:05:27;;;;;;;2.40;0.40;;;;;;;7.07;87.53;99670.09;107823;1264;25360;-71
2023/12/30 06:08:18;;;;;;;3.00;0.30;;;;;;;7.04;87.59;99669.30;107874;1264;22618;-71
2023/12/30 06:11:09;;;;;;;3.20;0.50;;;;;;;7.02;87.57;99667.41;107785;1271;25037;-71
2023/12/30 06:14:00;;;;;;;2.40;0.40;;;;;;;7.00;87.57;99658.66;107685;1264;22582;-74
2023/12/30 06:16:51;;;;;;;1.70;0.30;;;;;;;6.95;87.66;99664.71;107804;1271;23910;-71
2023/12/30 06:19:43;;;;;;;3.90;0.50;;;;;;;6.93;87.64;99664.97;107695;1265;25542;-71
2023/12/30 06:22:34;;;;;;;2.80;0.50;;;;;;;6.87;87.71;99661.02;107973;1264;24369;-71
2023/12/30 06:25:24;;;;;;;6.40;0.80;;;;;;;6.83;87.85;99660.58;107680;1268;25351;-71
2023/12/30 06:28:16;;;;;;;1.50;0.30;;;;;;;6.81;87.95;99667.55;107727;1268;24340;-72
2023/12/30 06:31:07;;;;;;;2.70;0.50;;;;;;;6.77;88.01;99664.16;107886;1270;22755;-71
2023/12/30 06:33:58;;;;;;;4.60;0.60;;;;;;;6.74;88.11;99666.46;107907;1271;22613;-71
2023/12/30 06:36:48;;;;;;;2.20;0.40;;;;;;;6.69;88.34;99672.08;107723;1264;22660;-71
2023/12/30 06:39:39;;;;;;;4.30;0.30;;;;;;;6.65;88.91;99682.88;107901;1269;25419;-71
2023/12/30 06:42:31;;;;;;;3.80;0.60;;;;;;;6.64;89.38;99699.73;107901;1263;22519;-71
2023/12/30 06:45:22;;;;;;;2.50;0.40;;;;;;;6.65;89.65;99710.52;107724;1271;25470;-71
2023/12/30 06:48:13;;;;;;;3.00;0.40;;;;;;;6.70;89.78;99714.73;107839;1270;22759;-71
2023/12/30 06:51:04;;;;;;;2.00;0.40;;;;;;;6.78;89.83;99708.52;107657;1271;22651;-74
2023/12/30 06:53:56;;;;;;;2.40;0.40;;;;;;;6.83;89.95;99700.49;107694;1271;24173;-72
2023/12/30 06:56:47;;;;;;;;;;;;;;;6.87;89.94;99718.73;107734;1264;22512;-73
2023/12/30 06:59:38;;;;;;;3.50;0.50;;;;;;;6.87;89.99;99720.95;107896;1271;22711;-73
2023/12/30 07:02:28;;;;;;;5.80;0.50;;;;;;;6.88;90.04;99732.69;108033;1268;25395;-72
2023/12/30 07:05:19;;;;;;;5.20;0.70;;;;;;;6.89;90.14;99737.71;107774;1265;23328;-72
2023/12/30 07:08:10;;;;;;;2.90;0.60;;;;;;;6.90;90.24;99744.74;108177;1268;22612;-73
2023/12/30 07:11:01;;;;;;;2.90;0.50;;;;;;;6.90;90.18;99754.14;108035;1271;25380;-72
2023/12/30 07:13:52;;;;;;;3.60;0.60;;;;;;;6.92;90.13;99773.56;107802;1271;22658;-72
2023/12/30 07:16:48;;;;;;;3.90;0.50;;;;;;;6.96;89.99;99811.61;107812;1260;22636;-72
2023/12/30 07:19:39;;;;;;;2.10;0.30;;;;;;;6.98;90.92;99856.78;107824;1264;23904;-74
2023/12/30 07:22:30;;;;;;;2.30;0.20;;;;;;;6.79;89.93;99861.23;107895;1265;22531;-73
2023/12/30 07:25:21;;;;;;;0.60;0.00;;;;;;;6.57;89.89;99858.38;107687;1271;22521;-73
2023/12/30 07:28:12;;;;;;;0.40;0.00;;;;;;;6.42;90.14;99869.67;107744;1258;22652;-73
2023/12/30 07:31:03;;;;;;;1.10;0.10;;;;;;;6.29;90.08;99877.59;107723;1268;25452;-72
2023/12/30 07:33:54;;;;;;;2.00;0.10;;;;;;;6.20;90.39;99892.43;107765;1271;22784;-72
2023/12/30 07:36:45;;;;;;;1.30;0.10;;;;;;;6.12;90.52;99891.69;107898;1263;22572;-72
2023/12/30 07:39:36;;;;;;;1.20;0.20;;;;;;;6.08;90.58;99891.54;107830;1265;23784;-72
2023/12/30 07:42:27;;;;;;;1.70;0.10;;;;;;;6.03;90.91;99895.04;107828;1260;23218;-72
2023/12/30 07:45:18;;;;;;;0.30;0.00;;;;;;;6.00;90.75;99899.83;107753;1264;26058;-72
2023/12/30 07:48:09;;;;;;;1.10;0.20;;;;;;;5.98;91.04;99902.01;107752;1264;23148;-72
2023/12/30 07:51:00;;;;;;;0.10;0.10;;;;;;;5.95;91.05;99908.74;107632;1264;24273;-72
2023/12/30 07:53:51;;;;;;;0.50;0.10;;;;;;;5.93;91.11;99913.02;107666;1265;22526;-72
2023/12/30 07:56:42;;;;;;;0.70;0.10;;;;;;;5.91;91.09;99909.45;107636;1268;22607;-73
2023/12/30 07:59:33;;;;;;;0.40;0.10;;;;;;;5.90;91.11;99919.33;107632;1265;25349;-73
2023/12/30 08:02:24;;;;;;;0.30;0.10;;;;;;;5.88;91.12;99913.20;107679;1264;22701;-72
2023/12/30 08:05:15;;;;;;;0.90;0.10;;;;;;;5.88;91.11;99929.35;107783;1265;22520;-72
2023/12/30 08:08:08;;;;;;;1.10;0.10;;;;;;;5.87;91.11;99927.29;107670;1261;22648;-73
2023/12/30 08:10:59;;;;;;;3.20;0.10;;;;;;;5.85;91.14;99919.29;107561;1265;25401;-72
2023/12/30 08:13:50;;;;;;;0.20;0.00;;;;;;;5.85;91.12;99918.77;107688;1268;25400;-72
2023/12/30 08:16:41;;;;;;;1.90;0.10;;;;;;;5.85;91.43;99926.88;107694;1248;22640;-73
2023/12/30 08:19:33;;;;;;;2.30;0.10;;;;;;;5.84;91.41;99931.66;107587;1268;22518;-73
2023/12/30 08:22:23;;;;;;;0.60;0.10;;;;;;;5.84;91.41;99950.34;107713;1265;25330;-72
2023/12/30 08:25:14;;;;;;;4.30;0.10;;;;;;;5.83;91.54;99950.58;107955;1270;22574;-72
2023/12/30 08:28:06;;;;;;;0.50;0.10;;;;;;;5.83;91.74;99936.11;107771;1271;22522;-73
2023/12/30 08:30:59;;;;;;;0.70;0.10;;;;;;;5.82;91.62;99903.76;107773;1270;22591;-72
2023/12/30 08:33:51;;;;;;;1.90;0.10;;;;;;;5.82;91.14;99916.50;107728;1265;25330;-73
2023/12/30 08:36:42;;;;;;;1.60;0.10;;;;;;;5.84;91.12;99925.95;107655;1264;22536;-72
2023/12/30 08:39:34;;;;;;;1.30;0.10;;;;;;;5.86;90.99;99923.04;107691;1270;22520;-72
2023/12/30 08:42:25;;;;;;;0.50;0.10;;;;;;;5.90;90.79;99920.05;107762;1264;22612;-72
2023/12/30 08:45:19;;;;;;;0.20;0.00;;;;;;;5.94;90.97;99917.60;107714;1264;23145;-72
2023/12/30 08:48:10;;;;;;;0.70;0.10;;;;;;;5.98;90.90;99918.20;107634;1265;26271;-72
2023/12/30 08:51:01;;;;;;;0.50;0.00;;;;;;;6.02;90.75;99915.84;107656;1265;22538;-71
2023/12/30 08:53:53;;;;;;;0.70;0.10;;;;;;;6.07;90.74;99921.41;107673;1271;25388;-71
2023/12/30 08:56:44;;;;;;;1.50;0.20;;;;;;;6.12;90.85;99917.64;107530;1273;25406;-71
2023/12/30 08:59:35;;;;;;;1.30;0.10;;;;;;;6.19;90.86;99913.48;107572;1271;22547;-72
2023/12/30 09:02:26;;;;;;;1.20;0.10;;;;;;;6.28;90.83;99918.84;107701;1265;23904;-72
2023/12/30 09:05:19;;;;;;;1.40;0.40;;;;;;;6.36;90.89;99925.72;107703;1271;23267;-71
2023/12/30 09:08:10;;;;;;;1.20;0.10;;;;;;;6.43;90.98;99936.27;107678;1264;23492;-72
2023/12/30 09:11:02;;;;;;;2.20;0.10;;;;;;;6.49;90.82;99938.33;107721;1265;22663;-73
2023/12/30 09:13:53;;;;;;;0.60;0.10;;;;;;;6.52;91.03;99940.00;107778;1265;22545;-72
2023/12/30 09:16:44;;;;;;;2.20;0.20;;;;;;;6.55;90.80;99938.86;107716;1265;22590;-72
2023/12/30 09:19:35;;;;;;;0.30;0.10;;;;;;;6.57;90.48;99944.02;107819;1268;22608;-73
2023/12/30 09:22:26;;;;;;;1.70;0.10;;;;;;;6.58;90.67;99951.36;107680;1271;24975;-72
2023/12/30 09:25:17;;;;;;;2.60;0.20;;;;;;;6.58;90.57;99954.92;107791;1270;22641;-72
2023/12/30 09:28:09;;;;;;;2.50;0.40;;;;;;;6.60;90.72;99959.43;107804;1271;23227;-72
2023/12/30 09:30:59;;;;;;;2.00;0.20;;;;;;;6.61;90.65;99960.02;107633;1271;25327;-72
2023/12/30 09:33:51;;;;;;;3.50;0.30;;;;;;;6.63;90.50;99962.48;107835;1264;22596;-72
2023/12/30 09:36:42;;;;;;;1.90;0.30;;;;;;;6.65;90.50;99968.02;107763;1265;25262;-72
2023/12/30 09:39:33;;;;;;;1.30;0.20;;;;;;;6.67;90.41;99973.66;107708;1265;24381;-71
2023/12/30 09:42:24;;;;;;;1.40;0.20;;;;;;;6.68;90.36;99969.63;107669;1264;22858;-71
2023/12/30 09:45:17;;;;;;;2.00;0.30;;;;;;;6.72;90.33;99965.75;107666;1266;23343;-74
2023/12/30 09:48:10;;;;;;;3.30;0.20;;;;;;;6.74;90.09;99969.95;110937;1272;22484;-72
2023/12/30 09:51:00;;;;;;;4.00;0.20;;;;;;;6.77;90.11;99970.44;110991;1264;22165;-73
2023/12/30 09:53:51;;;;;;;1.10;0.20;;;;;;;6.79;90.06;99971.21;110999;1265;22335;-71
2023/12/30 09:56:45;;;;;;;1.90;0.10;;;;;;;6.84;89.65;99978.10;110980;1265;22094;-72
2023/12/30 09:59:38;;;;;;;2.00;0.20;;;;;;;6.88;89.58;99972.33;110959;1272;22165;-72
2023/12/30 10:02:29;;;;;;;0.60;0.10;;;;;;;6.92;89.71;99974.23;110976;1268;23212;-73
2023/12/30 10:05:20;;;;;;;2.40;0.20;;;;;;;6.97;89.75;99977.05;110964;1264;22912;-74
2023/12/30 10:08:12;;;;;;;2.00;0.70;;;;;;;7.02;89.76;99972.14;110951;1265;22265;-72
2023/12/30 10:11:08;;;;;;;1.00;0.20;;;;;;;7.06;89.73;99973.26;109221;1265;22558;-72
2023/12/30 10:13:58;;;;;;;3.60;0.30;;;;;;;7.09;89.52;99978.34;107674;1264;24271;-72
2023/12/30 10:16:49;;;;;;;4.20;0.30;;;;;;;7.11;89.42;99980.88;107761;1271;25491;-73
2023/12/30 10:19:41;;;;;;;1.40;0.20;;;;;;;7.13;89.31;99981.84;107699;1258;23734;-72
2023/12/30 10:22:31;;;;;;;2.20;0.50;;;;;;;7.14;88.94;99987.41;107708;1265;22626;-73
2023/12/30 10:25:22;;;;;;;1.80;0.40;;;;;;;7.16;89.12;99986.86;107802;1260;22574;-72
2023/12/30 10:28:13;;;;;;;7.50;0.90;;;;;;;7.20;89.01;99988.69;107861;1264;25367;-73
2023/12/30 10:31:06;;;;;;;4.70;0.70;;;;;;;7.24;89.17;99981.13;107897;1271;24157;-72
2023/12/30 10:33:57;;;;;;;2.50;0.40;;;;;;;7.28;89.02;99985.23;110933;1265;22174;-70
2023/12/30 10:36:48;;;;;;;3.40;0.50;;;;;;;7.33;89.04;99980.33;110943;1264;22317;-70
2023/12/30 10:39:42;;;;;;;3.50;0.40;;;;;;;7.39;88.39;99985.88;110293;1265;23138;-72
2023/12/30 10:42:33;;;;;;;3.30;0.50;;;;;;;7.44;88.41;99991.83;110953;1264;22346;-73
2023/12/30 10:45:24;;;;;;;2.30;0.60;;;;;;;7.51;88.13;99994.61;110941;1265;22333;-73
2023/12/30 10:48:15;;;;;;;3.40;0.30;;;;;;;7.59;87.64;100001.33;110923;1264;23009;-72
2023/12/30 10:51:09;;;;;;;3.10;0.50;;;;;;;7.66;87.54;100010.40;110932;1264;22152;-75
2023/12/30 10:54:06;;;;;;;3.60;0.50;;;;;;;7.71;87.88;100009.65;110922;1271;22170;-73
2023/12/30 10:57:03;;;;;;;4.10;0.50;;;;;;;7.77;87.05;100012.36;110985;1268;22209;-73
2023/12/30 10:59:57;;;;;;;3.60;0.30;;;;;;;7.79;86.03;100017.09;110830;1273;22380;-73
2023/12/30 11:02:49;;;;;;;4.00;0.60;;;;;;;7.80;85.67;100023.88;110964;1264;22119;-73
2023/12/30 11:05:48;;;;;;;4.20;0.60;;;;;;;7.81;85.74;100025.48;110973;1268;22807;-72
2023/12/30 11:08:41;;;;;;;4.90;0.50;;;;;;;7.82;85.45;100027.52;110959;1264;22334;-73
2023/12/30 11:11:32;;;;;;;5.60;0.60;;;;;;;7.84;85.63;100033.44;110957;1271;22227;-75
2023/12/30 11:14:23;;;;;;;3.40;0.40;;;;;;;7.88;85.83;100033.34;110959;1265;22396;-74
2023/12/30 11:17:37;;;;;;;3.20;0.60;;;;;;;7.91;85.41;100034.87;110950;1268;22203;-73
2023/12/30 11:20:30;;;;;;;3.70;0.50;;;;;;;7.92;85.53;100036.11;110911;1264;22153;-73
2023/12/30 11:23:22;;;;;;;4.40;0.50;;;;;;;7.92;85.60;100040.16;110955;1265;22276;-73
2023/12/30 11:26:14;;;;;;;4.20;0.30;;;;;;;7.92;85.80;100038.04;110910;1265;22247;-74
2023/12/30 11:29:05;;;;;;;1.90;0.40;;;;;;;7.92;85.74;100041.11;110998;1268;22172;-73
2023/12/30 11:31:58;;;;;;;4.10;0.70;;;;;;;7.92;85.78;100038.20;110951;1264;22334;-73
2023/12/30 11:34:50;;;;;;;3.20;0.50;;;;;;;7.92;86.02;100038.66;110917;1268;22135;-73
2023/12/30 11:37:44;;;;;;;2.10;0.40;;;;;;;7.92;85.89;100036.34;110969;1264;22311;-71
2023/12/30 11:40:41;;;;;;;6.20;0.40;;;;;;;7.92;86.18;100040.17;110942;1263;22512;-73
2023/12/30 11:43:32;;;;;;;2.90;0.50;;;;;;;7.92;86.19;100041.98;110957;1264;22249;-73
2023/12/30 11:46:23;;;;;;;4.80;0.40;;;;;;;7.92;86.38;100040.50;111077;1268;22145;-72
2023/12/30 11:49:21;;;;;;;3.80;0.40;;;;;;;7.91;86.64;100039.23;111064;1265;22985;-73
2023/12/30 11:52:12;;;;;;;6.70;0.70;;;;;;;7.93;86.52;100037.19;110991;1265;22327;-72
2023/12/30 11:55:04;;;;;;;2.50;0.60;;;;;;;7.95;86.75;100036.94;110986;1264;22110;-71
2023/12/30 11:57:55;;;;;;;4.40;0.50;;;;;;;7.95;86.64;100040.24;111023;1265;22430;-74
2023/12/30 12:00:46;;;;;;;3.30;0.60;;;;;;;7.97;86.82;100035.33;110747;1264;22285;-72
2023/12/30 12:03:37;;;;;;;3.90;0.50;;;;;;;7.97;86.70;100033.02;110891;1265;22097;-73
2023/12/30 12:06:28;;;;;;;4.60;0.50;;;;;;;7.98;86.47;100024.25;110855;1261;22421;-72
2023/12/30 12:09:18;;;;;;;5.60;0.60;;;;;;;8.00;86.58;100027.89;110906;1260;22687;-72
2023/12/30 12:12:10;;;;;;;2.30;0.20;;;;;;;8.00;86.30;100027.23;110855;1264;22216;-73
2023/12/30 12:15:01;;;;;;;3.70;0.30;;;;;;;8.00;85.88;100027.39;110875;1258;22165;-72
2023/12/30 12:17:53;;;;;;;2.70;0.40;;;;;;;8.01;85.75;100025.29;110833;1271;26219;-72
2023/12/30 12:20:45;;;;;;;8.10;0.50;;;;;;;8.01;85.01;100020.69;110857;1261;22961;-73
2023/12/30 12:23:36;;;;;;;3.50;0.70;;;;;;;8.02;84.83;100025.48;110896;1271;23045;-72
2023/12/30 12:26:28;;;;;;;3.30;0.70;;;;;;;8.02;84.05;100021.19;110748;1265;140660;-73
2023/12/30 12:29:18;;;;;;;5.30;0.70;;;;;;;8.02;83.30;100025.63;110853;1268;22108;-72
2023/12/30 12:32:13;;;;;;;8.80;0.70;;;;;;;8.03;82.60;100028.15;110909;1271;23065;-72
2023/12/30 12:35:03;;;;;;;5.20;0.80;;;;;;;8.03;82.33;100022.80;110857;1265;22556;-72
2023/12/30 12:37:54;;;;;;;8.10;0.90;;;;;;;8.03;81.81;100024.73;110867;1268;22343;-72
2023/12/30 12:40:47;;;;;;;6.20;0.70;;;;;;;8.03;81.65;100022.90;110864;1268;22432;-72
2023/12/30 12:43:37;;;;;;;6.00;0.90;;;;;;;8.04;81.84;100019.59;110864;1264;22347;-73
2023/12/30 12:46:26;;;;;;;;;;;;;;;8.05;82.02;100025.42;110893;1267;22391;-73
2023/12/30 12:49:19;;;;;;;4.90;0.60;;;;;;;8.04;81.90;100028.48;110714;1264;23070;-70
2023/12/30 12:52:10;;;;;;;2.50;0.80;;;;;;;8.03;81.48;100031.45;110837;1266;23040;-72
2023/12/30 12:55:01;;;;;;;6.40;0.70;;;;;;;8.03;81.55;100025.89;110779;1264;22379;-74
2023/12/30 12:57:50;;;;;;;;;;;;;;;8.04;81.18;100026.91;110874;1264;22986;-73
2023/12/30 13:00:40;;;;;;;6.10;0.60;;;;;;;8.03;81.36;100026.45;110855;1265;22971;-72
2023/12/30 13:03:31;;;;;;;3.10;0.50;;;;;;;8.02;81.53;100023.55;110861;1265;22160;-72
2023/12/30 13:06:22;;;;;;;7.80;1.00;;;;;;;8.04;81.76;100023.98;110868;1261;23032;-72
2023/12/30 13:09:31;;;;;;;8.00;1.20;;;;;;;8.03;81.68;100028.52;110857;1263;22462;-72
2023/12/30 13:12:21;;;;;;;4.80;0.80;;;;;;;8.03;81.87;100023.15;110860;1264;22987;-71
2023/12/30 13:15:15;;;;;;;5.40;0.80;;;;;;;8.03;81.85;100020.27;110885;1264;23181;-72
2023/12/30 13:18:12;;;;;;;5.70;0.70;;;;;;;8.03;81.71;100026.61;110839;1269;22302;-75
2023/12/30 13:21:06;;;;;;;4.50;0.80;;;;;;;8.04;81.79;100021.36;110863;1268;23129;-72
2023/12/30 13:23:57;;;;;;;5.80;0.80;;;;;;;8.04;81.82;100015.95;110829;1272;22224;-72
2023/12/30 13:26:49;;;;;;;5.70;0.70;;;;;;;8.04;81.78;100018.08;110888;1264;23159;-72
2023/12/30 13:29:41;;;;;;;9.50;0.70;;;;;;;8.03;81.76;100015.17;110902;1270;22272;-71